METAR Analyzer

一覧表示

Hello, Guest. (Login)

YSSY/SYD  -  シドニー・キングスフォード・スミス

観測日時
2024-07-13 00:00 (UTC) (19分前)
気温
15
露点
8
湿数
7
相対湿度
62.9%
QNH
1011hPa
推定現地気圧
1010.3hPa
推定海面気圧
1011.0hPa
体感温度
4.2
(無風時)
16.4
HI
14.2
気温前日比
+1
体感温度前日比
-1.6
HI前日比
+1
水平視程
>10000m
鉛直視程
データなし
雲底高度
データなし
V/I
判定不可
RVR
No RVR data
卓越風
17kt from 200°
ガスト
No gust
降水
報告なし
その他の天気
報告なし
報告なし

YSSY 130000Z 20017KT CAVOK 15/08 Q1011 BKN170

[PR]

NZAA/AKL  -  Auckland

観測日時
2024-07-13 00:00 (UTC) (19分前)
気温
11
露点
5
湿数
6
相対湿度
66.5%
QNH
1027hPa
推定現地気圧
1026.1hPa
推定海面気圧
1027.0hPa
体感温度
5.6
(無風時)
13.4
HI
9.9
気温前日比
+1
体感温度前日比
+2.5
HI前日比
+0.9
水平視程
>10000m
鉛直視程
データなし
雲底高度
No dense clouds
V/I
VMC (VFR)
RVR
No RVR data
卓越風
3kt from 180°
ガスト
No gust
降水
報告なし
その他の天気
報告なし
目立った雲なし

NZAA 130000Z AUTO 18003KT 9999 NCD 11/05 Q1027

[PR]

NZWN/WLG  -  Wellington

観測日時
2024-07-13 00:00 (UTC) (19分前)
気温
11
露点
8
湿数
3
相対湿度
81.7%
QNH
1032hPa
推定現地気圧
1030.4hPa
推定海面気圧
1032.0hPa
体感温度
0.2
(無風時)
13.5
HI
10.3
気温前日比
+2
体感温度前日比
+6.8
HI前日比
+1.9
水平視程
>10000m
鉛直視程
データなし
雲底高度
4600ft AGL
V/I
VMC (VFR)
RVR
No RVR data
卓越風
10kt from 160°
ガスト
No gust
降水
報告なし
その他の天気
報告なし
少しの雲 @ 3900ft AGL / 隙間のある雲 @ 4600ft AGL

NZWN 130000Z AUTO 16010KT 9999 FEW039/// BKN046/// 11/08 Q1032

[PR]

NZCH/CHC  -  Christchurch

観測日時
2024-07-13 00:00 (UTC) (19分前)
気温
8
露点
3
湿数
5
相対湿度
70.6%
QNH
1035hPa
推定現地気圧
1030.5hPa
推定海面気圧
1035.1hPa
体感温度
1
(無風時)
11.1
HI
6.7
気温前日比
+2
体感温度前日比
+1.1
HI前日比
+2.1
水平視程
>10000m
鉛直視程
データなし
雲底高度
2200ft AGL
V/I
VMC (VFR)
RVR
No RVR data
卓越風
4kt from 60° (340° ~ 100°)
ガスト
No gust
降水
報告なし
その他の天気
報告なし
全天を覆う雲 @ 2200ft AGL

NZCH 130000Z AUTO 06004KT 340V100 9999 OVC022/// 08/03 Q1035

[PR]

NZQN/ZQN  -  Queenstown

観測日時
2024-07-13 00:00 (UTC) (19分前)
気温
3
露点
-3
湿数
6
相対湿度
64.6%
QNH
1029hPa
推定現地気圧
986.3hPa
推定海面気圧
1030.6hPa
体感温度
-5.5
(無風時)
7.3
HI
1
気温前日比
±0
体感温度前日比
+0.6
HI前日比
-0.3
水平視程
>10000m
鉛直視程
データなし
雲底高度
No dense clouds
V/I
VMC (VFR)
RVR
No RVR data
卓越風
5kt from 60°
ガスト
No gust
降水
報告なし
その他の天気
報告なし
目立った雲なし

NZQN 130000Z AUTO 06005KT 9999 NCD 03/M03 Q1029

[PR]
26msec